createdAt,value
2023-01-28T00:00:06.072Z,1024.62
2023-01-28T00:00:37.013Z,1024.61
2023-01-28T00:01:07.944Z,1024.61
2023-01-28T00:01:38.876Z,1024.61
2023-01-28T00:02:09.846Z,1024.60
2023-01-28T00:02:40.831Z,1024.59
2023-01-28T00:03:11.783Z,1024.59
2023-01-28T00:03:42.736Z,1024.59
2023-01-28T00:04:13.649Z,1024.58
2023-01-28T00:04:44.547Z,1024.58
2023-01-28T00:05:15.893Z,1024.56
2023-01-28T00:05:46.056Z,1024.57
2023-01-28T00:06:16.999Z,1024.57
2023-01-28T00:06:47.926Z,1024.56
2023-01-28T00:07:18.832Z,1024.55
2023-01-28T00:07:49.759Z,1024.55
2023-01-28T00:08:20.266Z,1024.57
2023-01-28T00:08:51.203Z,1024.57
2023-01-28T00:09:22.117Z,1024.56
2023-01-28T00:09:53.031Z,1024.57
2023-01-28T00:10:23.973Z,1024.57
2023-01-28T00:10:54.957Z,1024.58
2023-01-28T00:11:25.874Z,1024.57
2023-01-28T00:11:56.826Z,1024.57
2023-01-28T00:12:27.773Z,1024.58
2023-01-28T00:12:58.717Z,1024.57
2023-01-28T00:13:29.635Z,1024.57
2023-01-28T00:14:00.563Z,1024.56
2023-01-28T00:14:31.473Z,1024.55
2023-01-28T00:15:02.419Z,1024.55
2023-01-28T00:15:33.317Z,1024.55
2023-01-28T00:16:04.289Z,1024.55
2023-01-28T00:16:35.277Z,1024.56
2023-01-28T00:17:06.223Z,1024.56
2023-01-28T00:17:37.154Z,1024.56
2023-01-28T00:18:08.048Z,1024.56
2023-01-28T00:18:38.979Z,1024.56
2023-01-28T00:19:09.875Z,1024.55
2023-01-28T00:19:40.797Z,1024.55
2023-01-28T00:20:11.675Z,1024.54
2023-01-28T00:20:42.590Z,1024.54
2023-01-28T00:21:13.505Z,1024.52
2023-01-28T00:21:44.422Z,1024.51
2023-01-28T00:22:15.357Z,1024.50
2023-01-28T00:22:46.295Z,1024.50
2023-01-28T00:23:17.183Z,1024.50
2023-01-28T00:23:48.113Z,1024.50
2023-01-28T00:24:19.062Z,1024.50
2023-01-28T00:24:50.036Z,1024.50
2023-01-28T00:25:20.944Z,1024.50
2023-01-28T00:25:51.843Z,1024.49
2023-01-28T00:26:22.759Z,1024.50
2023-01-28T00:26:53.671Z,1024.50
2023-01-28T00:27:24.604Z,1024.51
2023-01-28T00:27:55.522Z,1024.51
2023-01-28T00:28:26.445Z,1024.51
2023-01-28T00:28:57.361Z,1024.51
2023-01-28T00:29:28.290Z,1024.52
2023-01-28T00:29:59.252Z,1024.54
2023-01-28T00:30:30.178Z,1024.55
2023-01-28T00:31:01.149Z,1024.54
2023-01-28T00:31:32.074Z,1024.54
2023-01-28T00:32:03.090Z,1024.55
2023-01-28T00:32:33.509Z,1024.56
2023-01-28T00:33:04.430Z,1024.55
2023-01-28T00:33:35.349Z,1024.55
2023-01-28T00:34:06.274Z,1024.55
2023-01-28T00:34:37.219Z,1024.56
2023-01-28T00:35:08.117Z,1024.56
2023-01-28T00:35:39.044Z,1024.57
2023-01-28T00:36:09.951Z,1024.57
2023-01-28T00:36:40.863Z,1024.57
2023-01-28T00:37:11.752Z,1024.56
2023-01-28T00:37:42.694Z,1024.55
2023-01-28T00:38:13.628Z,1024.56
2023-01-28T00:38:44.568Z,1024.55
2023-01-28T00:39:15.515Z,1024.55
2023-01-28T00:39:46.443Z,1024.55
2023-01-28T00:40:17.356Z,1024.55
2023-01-28T00:40:48.249Z,1024.56
2023-01-28T00:41:19.255Z,1024.56
2023-01-28T00:41:50.173Z,1024.54
2023-01-28T00:42:21.095Z,1024.54
2023-01-28T00:42:52.031Z,1024.54
2023-01-28T00:43:22.951Z,1024.54
2023-01-28T00:43:53.869Z,1024.54
2023-01-28T00:44:24.379Z,1024.55
2023-01-28T00:45:26.231Z,1024.55
2023-01-28T00:45:57.194Z,1024.54
2023-01-28T00:46:28.095Z,1024.54
2023-01-28T00:46:59.089Z,1024.53
2023-01-28T00:47:30.021Z,1024.53
2023-01-28T00:48:00.949Z,1024.53
2023-01-28T00:48:31.917Z,1024.54
2023-01-28T00:49:02.840Z,1024.54
2023-01-28T00:49:33.737Z,1024.55
2023-01-28T00:50:04.643Z,1024.54
2023-01-28T00:50:35.554Z,1024.53
2023-01-28T00:51:06.471Z,1024.54
2023-01-28T00:51:37.369Z,1024.53
2023-01-28T00:52:08.310Z,1024.53
2023-01-28T00:52:39.295Z,1024.53
2023-01-28T00:53:10.224Z,1024.51
2023-01-28T00:53:41.109Z,1024.51
2023-01-28T00:54:12.028Z,1024.50
2023-01-28T00:54:42.939Z,1024.50
2023-01-28T00:55:14.145Z,1024.48
2023-01-28T00:55:44.685Z,1024.48
2023-01-28T00:56:15.630Z,1024.48
2023-01-28T00:56:46.550Z,1024.49
2023-01-28T00:57:17.449Z,1024.49
2023-01-28T00:57:48.354Z,1024.51
2023-01-28T00:58:19.262Z,1024.52
2023-01-28T00:58:50.206Z,1024.52
2023-01-28T00:59:21.112Z,1024.52
2023-01-28T00:59:52.039Z,1024.53
2023-01-28T01:00:22.979Z,1024.53
2023-01-28T01:00:53.881Z,1024.54
2023-01-28T01:01:24.826Z,1024.54
2023-01-28T01:01:55.727Z,1024.56
2023-01-28T01:02:26.693Z,1024.55
2023-01-28T01:02:57.610Z,1024.57
2023-01-28T01:03:28.548Z,1024.59
2023-01-28T01:03:59.515Z,1024.60
2023-01-28T01:04:30.407Z,1024.61
2023-01-28T01:05:01.329Z,1024.60
2023-01-28T01:05:32.260Z,1024.61
2023-01-28T01:06:03.198Z,1024.59
2023-01-28T01:06:34.151Z,1024.60
2023-01-28T01:07:05.041Z,1024.61
2023-01-28T01:08:06.864Z,1024.59
2023-01-28T01:08:37.798Z,1024.59
2023-01-28T01:09:08.839Z,1024.60
2023-01-28T01:09:39.240Z,1024.61
2023-01-28T01:10:10.151Z,1024.61
2023-01-28T01:10:41.059Z,1024.61
2023-01-28T01:11:11.983Z,1024.63
2023-01-28T01:11:42.953Z,1024.63
2023-01-28T01:12:13.853Z,1024.64
2023-01-28T01:12:44.775Z,1024.65
2023-01-28T01:13:15.765Z,1024.65
2023-01-28T01:13:46.658Z,1024.65
2023-01-28T01:14:17.592Z,1024.66
2023-01-28T01:14:48.507Z,1024.65
2023-01-28T01:15:19.416Z,1024.65
2023-01-28T01:15:50.376Z,1024.65
2023-01-28T01:16:21.281Z,1024.64
2023-01-28T01:16:52.217Z,1024.66
2023-01-28T01:17:23.143Z,1024.66
2023-01-28T01:17:54.081Z,1024.68
2023-01-28T01:18:25.032Z,1024.68
2023-01-28T01:18:55.932Z,1024.68
2023-01-28T01:19:26.880Z,1024.68
2023-01-28T01:19:57.773Z,1024.70
2023-01-28T01:20:28.689Z,1024.71
2023-01-28T01:20:59.690Z,1024.68
2023-01-28T01:21:30.623Z,1024.68
2023-01-28T01:22:01.628Z,1024.69
2023-01-28T01:22:32.523Z,1024.67
2023-01-28T01:23:03.457Z,1024.68
2023-01-28T01:23:33.951Z,1024.68
2023-01-28T01:24:04.949Z,1024.68
2023-01-28T01:24:35.873Z,1024.67
2023-01-28T01:25:06.821Z,1024.68
2023-01-28T01:25:37.708Z,1024.68
2023-01-28T01:26:08.642Z,1024.68
2023-01-28T01:26:39.567Z,1024.68
2023-01-28T01:27:10.504Z,1024.68
2023-01-28T01:27:41.413Z,1024.67
2023-01-28T01:28:12.312Z,1024.67
2023-01-28T01:28:43.229Z,1024.65
2023-01-28T01:29:14.201Z,1024.64
2023-01-28T01:30:15.999Z,1024.63
2023-01-28T01:30:46.954Z,1024.64
2023-01-28T01:31:17.870Z,1024.65
2023-01-28T01:31:48.793Z,1024.65
2023-01-28T01:32:19.689Z,1024.66
2023-01-28T01:32:50.637Z,1024.68
2023-01-28T01:33:21.545Z,1024.68
2023-01-28T01:33:52.504Z,1024.69
2023-01-28T01:34:23.412Z,1024.69
2023-01-28T01:34:54.357Z,1024.69
2023-01-28T01:35:25.250Z,1024.69
2023-01-28T01:35:56.183Z,1024.69
2023-01-28T01:36:27.114Z,1024.68
2023-01-28T01:36:58.021Z,1024.68
2023-01-28T01:37:28.950Z,1024.68
2023-01-28T01:37:59.881Z,1024.69
2023-01-28T01:38:30.806Z,1024.69
2023-01-28T01:39:01.731Z,1024.70
2023-01-28T01:39:32.649Z,1024.72
2023-01-28T01:40:03.558Z,1024.73
2023-01-28T01:40:34.501Z,1024.73
2023-01-28T01:41:05.450Z,1024.75
2023-01-28T01:41:36.345Z,1024.75
2023-01-28T01:42:07.257Z,1024.76
2023-01-28T01:42:38.196Z,1024.76
2023-01-28T01:43:09.112Z,1024.76
2023-01-28T01:43:40.024Z,1024.76
2023-01-28T01:44:10.929Z,1024.77
2023-01-28T01:44:41.878Z,1024.79
2023-01-28T01:45:13.143Z,1024.79
2023-01-28T01:45:43.800Z,1024.81
2023-01-28T01:46:14.749Z,1024.82
2023-01-28T01:46:45.188Z,1024.83
2023-01-28T01:47:16.105Z,1024.83
2023-01-28T01:47:47.038Z,1024.84
2023-01-28T01:48:17.936Z,1024.84
2023-01-28T01:48:48.859Z,1024.84
2023-01-28T01:49:19.786Z,1024.84
2023-01-28T01:49:50.729Z,1024.85
2023-01-28T01:50:21.249Z,1024.84
2023-01-28T01:50:52.135Z,1024.84
2023-01-28T01:51:23.058Z,1024.84
2023-01-28T01:51:53.959Z,1024.85
2023-01-28T01:52:24.864Z,1024.84
2023-01-28T01:52:55.789Z,1024.86
2023-01-28T01:53:26.719Z,1024.86
2023-01-28T01:53:57.629Z,1024.86
2023-01-28T01:54:28.559Z,1024.88
2023-01-28T01:54:59.484Z,1024.90
2023-01-28T01:55:30.395Z,1024.91
2023-01-28T01:56:01.329Z,1024.92
2023-01-28T01:56:32.238Z,1024.91
2023-01-28T01:57:03.246Z,1024.92
2023-01-28T01:57:34.138Z,1024.92
2023-01-28T01:58:05.065Z,1024.92
2023-01-28T01:58:35.986Z,1024.92
2023-01-28T01:59:06.902Z,1024.93
2023-01-28T01:59:37.803Z,1024.93
2023-01-28T02:00:08.742Z,1024.93
2023-01-28T02:00:39.643Z,1024.92
2023-01-28T02:01:10.566Z,1024.90
2023-01-28T02:01:41.466Z,1024.89
2023-01-28T02:02:12.454Z,1024.88
2023-01-28T02:02:42.901Z,1024.87
2023-01-28T02:03:13.854Z,1024.86
2023-01-28T02:03:44.803Z,1024.85
2023-01-28T02:04:15.743Z,1024.84
2023-01-28T02:04:46.661Z,1024.84
2023-01-28T02:05:18.133Z,1024.84
2023-01-28T02:05:48.184Z,1024.84
2023-01-28T02:06:19.131Z,1024.84
2023-01-28T02:06:50.067Z,1024.83
2023-01-28T02:07:21.155Z,1024.83
2023-01-28T02:07:51.559Z,1024.82
2023-01-28T02:08:22.470Z,1024.81
2023-01-28T02:08:53.399Z,1024.82
2023-01-28T02:09:24.334Z,1024.81
2023-01-28T02:09:55.223Z,1024.81
2023-01-28T02:10:26.124Z,1024.80
2023-01-28T02:10:57.043Z,1024.81
2023-01-28T02:11:27.946Z,1024.80
2023-01-28T02:11:58.458Z,1024.81
2023-01-28T02:12:29.368Z,1024.81
2023-01-28T02:13:00.332Z,1024.80
2023-01-28T02:13:31.254Z,1024.81
2023-01-28T02:14:02.198Z,1024.82
2023-01-28T02:14:33.108Z,1024.81
2023-01-28T02:15:04.025Z,1024.82
2023-01-28T02:15:34.941Z,1024.81
2023-01-28T02:16:05.850Z,1024.82
2023-01-28T02:16:36.828Z,1024.82
2023-01-28T02:17:07.727Z,1024.83
2023-01-28T02:17:38.671Z,1024.83
2023-01-28T02:18:09.676Z,1024.84
2023-01-28T02:18:40.586Z,1024.84
2023-01-28T02:19:11.492Z,1024.84
2023-01-28T02:19:42.426Z,1024.84
2023-01-28T02:20:13.345Z,1024.84
2023-01-28T02:20:44.297Z,1024.84
2023-01-28T02:21:15.217Z,1024.85
2023-01-28T02:21:46.096Z,1024.83
2023-01-28T02:22:17.003Z,1024.85
2023-01-28T02:22:47.910Z,1024.84
2023-01-28T02:23:18.829Z,1024.84
2023-01-28T02:23:49.733Z,1024.85
2023-01-28T02:24:20.687Z,1024.85
2023-01-28T02:24:51.622Z,1024.86
2023-01-28T02:25:22.554Z,1024.87
2023-01-28T02:25:53.471Z,1024.87
2023-01-28T02:26:24.389Z,1024.88
2023-01-28T02:26:55.300Z,1024.88
2023-01-28T02:27:26.211Z,1024.89
2023-01-28T02:27:57.133Z,1024.89
2023-01-28T02:28:28.066Z,1024.90
2023-01-28T02:28:58.976Z,1024.90
2023-01-28T02:29:29.906Z,1024.92
2023-01-28T02:30:00.837Z,1024.91
2023-01-28T02:30:31.922Z,1024.92
2023-01-28T02:31:02.511Z,1024.92
2023-01-28T02:31:33.094Z,1024.92
2023-01-28T02:32:03.579Z,1024.92
2023-01-28T02:32:34.504Z,1024.93
2023-01-28T02:33:05.427Z,1024.93
2023-01-28T02:33:36.338Z,1024.94
2023-01-28T02:34:07.243Z,1024.94
2023-01-28T02:34:38.141Z,1024.94
2023-01-28T02:35:09.060Z,1024.94
2023-01-28T02:35:40.007Z,1024.94
2023-01-28T02:36:10.941Z,1024.94
2023-01-28T02:36:41.884Z,1024.95
2023-01-28T02:37:12.802Z,1024.95
2023-01-28T02:37:43.755Z,1024.96
2023-01-28T02:38:14.659Z,1024.96
2023-01-28T02:38:45.592Z,1024.98
2023-01-28T02:39:16.497Z,1024.99
2023-01-28T02:39:47.446Z,1025.00
2023-01-28T02:40:18.369Z,1025.00
2023-01-28T02:40:49.286Z,1025.01
2023-01-28T02:41:20.202Z,1025.02
2023-01-28T02:41:51.099Z,1025.02
2023-01-28T02:42:22.016Z,1025.02
2023-01-28T02:42:52.902Z,1025.01
2023-01-28T02:43:23.817Z,1025.02
2023-01-28T02:43:54.720Z,1025.02
2023-01-28T02:44:25.636Z,1025.02
2023-01-28T02:44:56.553Z,1025.02
2023-01-28T02:45:27.471Z,1025.02
2023-01-28T02:45:58.401Z,1025.03
2023-01-28T02:46:29.377Z,1025.03
2023-01-28T02:47:00.271Z,1025.03
2023-01-28T02:47:31.185Z,1025.03
2023-01-28T02:48:02.142Z,1025.04
2023-01-28T02:48:33.090Z,1025.03
2023-01-28T02:49:03.995Z,1025.03
2023-01-28T02:49:34.938Z,1025.05
2023-01-28T02:50:36.796Z,1025.04
2023-01-28T02:51:07.684Z,1025.04
2023-01-28T02:51:38.670Z,1025.04
2023-01-28T02:52:09.616Z,1025.05
2023-01-28T02:52:40.506Z,1025.04
2023-01-28T02:53:11.421Z,1025.04
2023-01-28T02:53:42.334Z,1025.04
2023-01-28T02:54:13.232Z,1025.03
2023-01-28T02:54:44.148Z,1025.02
2023-01-28T02:55:15.529Z,1025.02
2023-01-28T02:55:45.590Z,1025.02
2023-01-28T02:56:16.512Z,1025.02
2023-01-28T02:56:47.433Z,1025.02
2023-01-28T02:57:18.315Z,1025.01
2023-01-28T02:57:49.295Z,1025.01
2023-01-28T02:58:20.203Z,1025.02
2023-01-28T02:58:51.148Z,1025.01
2023-01-28T02:59:22.060Z,1025.02
2023-01-28T02:59:52.985Z,1025.02
2023-01-28T03:00:23.883Z,1025.01
2023-01-28T03:00:54.836Z,1025.01
2023-01-28T03:01:25.385Z,1025.02
2023-01-28T03:01:56.337Z,1025.02
2023-01-28T03:02:27.307Z,1025.01
2023-01-28T03:02:58.308Z,1025.02
2023-01-28T03:03:28.746Z,1025.01
2023-01-28T03:03:59.634Z,1025.00
2023-01-28T03:04:30.578Z,1025.00
2023-01-28T03:05:01.538Z,1025.00
2023-01-28T03:05:32.489Z,1025.01
2023-01-28T03:06:03.459Z,1025.01
2023-01-28T03:06:34.387Z,1025.02
2023-01-28T03:07:05.308Z,1025.05
2023-01-28T03:07:36.239Z,1025.02
2023-01-28T03:08:07.131Z,1025.03
2023-01-28T03:08:38.030Z,1025.03
2023-01-28T03:09:08.975Z,1025.03
2023-01-28T03:09:39.893Z,1025.04
2023-01-28T03:10:10.825Z,1025.03
2023-01-28T03:10:41.730Z,1025.02
2023-01-28T03:11:12.648Z,1025.03
2023-01-28T03:11:43.573Z,1025.02
2023-01-28T03:12:14.499Z,1025.03
2023-01-28T03:12:45.431Z,1025.05
2023-01-28T03:13:16.351Z,1025.04
2023-01-28T03:13:47.278Z,1025.05
2023-01-28T03:14:18.201Z,1025.05
2023-01-28T03:14:49.121Z,1025.05
2023-01-28T03:15:20.024Z,1025.06
2023-01-28T03:15:51.059Z,1025.07
2023-01-28T03:16:21.984Z,1025.07
2023-01-28T03:16:52.923Z,1025.06
2023-01-28T03:17:25.749Z,1025.05
2023-01-28T03:17:54.492Z,1025.06
2023-01-28T03:18:25.387Z,1025.06
2023-01-28T03:18:56.357Z,1025.06
2023-01-28T03:19:27.270Z,1025.06
2023-01-28T03:19:58.169Z,1025.06
2023-01-28T03:20:29.101Z,1025.05
2023-01-28T03:21:00.011Z,1025.05
2023-01-28T03:21:30.966Z,1025.05
2023-01-28T03:22:01.943Z,1025.05
2023-01-28T03:22:32.901Z,1025.04
2023-01-28T03:23:03.395Z,1025.04
2023-01-28T03:23:34.293Z,1025.05
2023-01-28T03:24:05.211Z,1025.05
2023-01-28T03:24:36.105Z,1025.05
2023-01-28T03:25:07.011Z,1025.05
2023-01-28T03:25:37.938Z,1025.04
2023-01-28T03:26:08.882Z,1025.04
2023-01-28T03:26:39.812Z,1025.06
2023-01-28T03:27:10.709Z,1025.07
2023-01-28T03:27:41.602Z,1025.07
2023-01-28T03:28:12.502Z,1025.08
2023-01-28T03:28:43.450Z,1025.07
2023-01-28T03:29:14.357Z,1025.08
2023-01-28T03:29:45.268Z,1025.07
2023-01-28T03:30:16.222Z,1025.07
2023-01-28T03:30:47.140Z,1025.07
2023-01-28T03:31:18.047Z,1025.08
2023-01-28T03:31:48.988Z,1025.08
2023-01-28T03:32:19.953Z,1025.09
2023-01-28T03:32:50.860Z,1025.08
2023-01-28T03:33:21.790Z,1025.09
2023-01-28T03:33:52.710Z,1025.10
2023-01-28T03:34:23.666Z,1025.11
2023-01-28T03:35:25.496Z,1025.12
2023-01-28T03:35:56.400Z,1025.12
2023-01-28T03:36:27.320Z,1025.13
2023-01-28T03:36:58.221Z,1025.13
2023-01-28T03:37:29.150Z,1025.12
2023-01-28T03:38:00.101Z,1025.15
2023-01-28T03:38:31.047Z,1025.13
2023-01-28T03:39:01.933Z,1025.16
2023-01-28T03:39:32.920Z,1025.16
2023-01-28T03:40:03.842Z,1025.17
2023-01-28T03:40:34.747Z,1025.18
2023-01-28T03:41:05.673Z,1025.18
2023-01-28T03:41:36.589Z,1025.18
2023-01-28T03:42:07.508Z,1025.19
2023-01-28T03:42:38.451Z,1025.19
2023-01-28T03:43:09.378Z,1025.18
2023-01-28T03:43:40.330Z,1025.18
2023-01-28T03:44:11.255Z,1025.19
2023-01-28T03:44:42.188Z,1025.20
2023-01-28T03:45:13.503Z,1025.21
2023-01-28T03:45:44.061Z,1025.21
2023-01-28T03:46:15.063Z,1025.22
2023-01-28T03:46:45.990Z,1025.23
2023-01-28T03:47:16.943Z,1025.24
2023-01-28T03:47:47.874Z,1025.25
2023-01-28T03:48:18.772Z,1025.26
2023-01-28T03:48:49.676Z,1025.27
2023-01-28T03:49:20.600Z,1025.27
2023-01-28T03:49:51.508Z,1025.27
2023-01-28T03:50:22.427Z,1025.26
2023-01-28T03:50:53.360Z,1025.26
2023-01-28T03:51:24.277Z,1025.26
2023-01-28T03:51:55.262Z,1025.26
2023-01-28T03:52:26.154Z,1025.26
2023-01-28T03:52:57.086Z,1025.26
2023-01-28T03:53:28.038Z,1025.26
2023-01-28T03:53:58.962Z,1025.27
2023-01-28T03:54:29.877Z,1025.26
2023-01-28T03:55:00.801Z,1025.26
2023-01-28T03:55:31.719Z,1025.27
2023-01-28T03:56:02.649Z,1025.27
2023-01-28T03:56:33.271Z,1025.27
2023-01-28T03:57:04.221Z,1025.27
2023-01-28T03:57:35.149Z,1025.28
2023-01-28T03:58:06.066Z,1025.28
2023-01-28T03:58:37.007Z,1025.29
2023-01-28T03:59:07.943Z,1025.27
2023-01-28T03:59:38.837Z,1025.28
2023-01-28T04:00:09.774Z,1025.29
2023-01-28T04:00:40.720Z,1025.30
2023-01-28T04:01:11.677Z,1025.31
2023-01-28T04:01:42.635Z,1025.29
2023-01-28T04:02:13.566Z,1025.29
2023-01-28T04:02:44.536Z,1025.29
2023-01-28T04:03:14.979Z,1025.30
2023-01-28T04:03:45.934Z,1025.31
2023-01-28T04:04:16.908Z,1025.32
2023-01-28T04:04:47.375Z,1025.30
2023-01-28T04:05:18.295Z,1025.31
2023-01-28T04:05:49.182Z,1025.33
2023-01-28T04:06:20.102Z,1025.33
2023-01-28T04:06:50.997Z,1025.34
2023-01-28T04:07:21.912Z,1025.34
2023-01-28T04:07:52.857Z,1025.36
2023-01-28T04:08:23.832Z,1025.36
2023-01-28T04:08:54.808Z,1025.36
2023-01-28T04:09:25.758Z,1025.37
2023-01-28T04:09:56.664Z,1025.37
2023-01-28T04:10:27.571Z,1025.38
2023-01-28T04:10:58.475Z,1025.38
2023-01-28T04:11:29.386Z,1025.37
2023-01-28T04:12:00.285Z,1025.38
2023-01-28T04:12:31.201Z,1025.37
2023-01-28T04:13:02.104Z,1025.40
2023-01-28T04:13:33.044Z,1025.39
2023-01-28T04:14:03.982Z,1025.39
2023-01-28T04:14:34.914Z,1025.39
2023-01-28T04:15:36.790Z,1025.40
2023-01-28T04:16:07.824Z,1025.40
2023-01-28T04:16:38.234Z,1025.38
2023-01-28T04:17:09.145Z,1025.36
2023-01-28T04:17:40.126Z,1025.36
2023-01-28T04:18:11.062Z,1025.36
2023-01-28T04:18:41.986Z,1025.37
2023-01-28T04:19:12.923Z,1025.37
2023-01-28T04:19:43.812Z,1025.36
2023-01-28T04:20:14.770Z,1025.36
2023-01-28T04:20:45.662Z,1025.36
2023-01-28T04:21:16.558Z,1025.36
2023-01-28T04:21:47.478Z,1025.36
2023-01-28T04:22:18.398Z,1025.36
2023-01-28T04:22:49.314Z,1025.35
2023-01-28T04:23:20.203Z,1025.35
2023-01-28T04:23:51.195Z,1025.36
2023-01-28T04:24:22.139Z,1025.35
2023-01-28T04:24:52.660Z,1025.34
2023-01-28T04:25:23.558Z,1025.34
2023-01-28T04:25:54.456Z,1025.34
2023-01-28T04:26:25.421Z,1025.33
2023-01-28T04:26:56.613Z,1025.34
2023-01-28T04:27:27.040Z,1025.36
2023-01-28T04:27:58.000Z,1025.36
2023-01-28T04:28:28.972Z,1025.37
2023-01-28T04:28:59.910Z,1025.38
2023-01-28T04:29:30.830Z,1025.40
2023-01-28T04:30:01.771Z,1025.40
2023-01-28T04:30:32.719Z,1025.41
2023-01-28T04:31:03.858Z,1025.42
2023-01-28T04:31:34.457Z,1025.43
2023-01-28T04:32:04.875Z,1025.43
2023-01-28T04:32:35.797Z,1025.44
2023-01-28T04:33:06.725Z,1025.45
2023-01-28T04:33:37.630Z,1025.45
2023-01-28T04:34:08.561Z,1025.46
2023-01-28T04:34:39.505Z,1025.49
2023-01-28T04:35:10.439Z,1025.49
2023-01-28T04:35:41.343Z,1025.50
2023-01-28T04:36:12.240Z,1025.52
2023-01-28T04:36:43.152Z,1025.54
2023-01-28T04:37:14.036Z,1025.55
2023-01-28T04:38:15.927Z,1025.56
2023-01-28T04:38:46.835Z,1025.55
2023-01-28T04:39:17.746Z,1025.55
2023-01-28T04:39:48.661Z,1025.55
2023-01-28T04:40:19.616Z,1025.55
2023-01-28T04:40:50.518Z,1025.55
2023-01-28T04:41:21.467Z,1025.55
2023-01-28T04:41:52.381Z,1025.56
2023-01-28T04:42:23.338Z,1025.57
2023-01-28T04:42:54.245Z,1025.58
2023-01-28T04:43:25.153Z,1025.58
2023-01-28T04:43:56.061Z,1025.59
2023-01-28T04:44:27.056Z,1025.57
2023-01-28T04:44:57.504Z,1025.56
2023-01-28T04:45:28.438Z,1025.58
2023-01-28T04:45:59.332Z,1025.57
2023-01-28T04:46:30.352Z,1025.56
2023-01-28T04:47:01.279Z,1025.55
2023-01-28T04:47:32.199Z,1025.55
2023-01-28T04:48:03.123Z,1025.56
2023-01-28T04:48:34.050Z,1025.56
2023-01-28T04:49:04.981Z,1025.58
2023-01-28T04:49:35.875Z,1025.58
2023-01-28T04:50:06.793Z,1025.59
2023-01-28T04:50:37.777Z,1025.60
2023-01-28T04:51:08.699Z,1025.61
2023-01-28T04:51:39.632Z,1025.62
2023-01-28T04:52:10.553Z,1025.62
2023-01-28T04:52:41.458Z,1025.62
2023-01-28T04:53:12.380Z,1025.62
2023-01-28T04:53:43.281Z,1025.62
2023-01-28T04:54:14.178Z,1025.62
2023-01-28T04:54:45.088Z,1025.63
2023-01-28T04:55:16.434Z,1025.62
2023-01-28T04:55:47.031Z,1025.63
2023-01-28T04:56:17.950Z,1025.65
2023-01-28T04:56:48.875Z,1025.65
2023-01-28T04:57:19.797Z,1025.65
2023-01-28T04:57:50.693Z,1025.66
2023-01-28T04:58:21.626Z,1025.66
2023-01-28T04:58:52.542Z,1025.67
2023-01-28T04:59:23.464Z,1025.67
2023-01-28T04:59:54.395Z,1025.67
2023-01-28T05:00:25.322Z,1025.66
2023-01-28T05:00:56.352Z,1025.66
2023-01-28T05:01:26.752Z,1025.68
2023-01-28T05:01:57.703Z,1025.68
2023-01-28T05:02:28.627Z,1025.67
2023-01-28T05:02:59.526Z,1025.69
2023-01-28T05:03:30.470Z,1025.71
2023-01-28T05:04:01.387Z,1025.69
2023-01-28T05:04:32.339Z,1025.71
2023-01-28T05:05:03.264Z,1025.70
2023-01-28T05:05:34.160Z,1025.71
2023-01-28T05:06:05.136Z,1025.70
2023-01-28T05:06:36.115Z,1025.73
2023-01-28T05:07:07.017Z,1025.71
2023-01-28T05:07:37.976Z,1025.72
2023-01-28T05:08:08.886Z,1025.72
2023-01-28T05:08:39.831Z,1025.72
2023-01-28T05:09:10.732Z,1025.74
2023-01-28T05:09:41.667Z,1025.74
2023-01-28T05:10:12.592Z,1025.75
2023-01-28T05:10:43.502Z,1025.75
2023-01-28T05:11:14.439Z,1025.77
2023-01-28T05:11:45.322Z,1025.78
2023-01-28T05:12:16.264Z,1025.78
2023-01-28T05:12:46.742Z,1025.79
2023-01-28T05:13:17.666Z,1025.79
2023-01-28T05:13:48.598Z,1025.79
2023-01-28T05:14:19.514Z,1025.79
2023-01-28T05:14:50.439Z,1025.80
2023-01-28T05:15:21.359Z,1025.80
2023-01-28T05:15:52.273Z,1025.80
2023-01-28T05:16:23.226Z,1025.81
2023-01-28T05:16:54.151Z,1025.81
2023-01-28T05:17:25.137Z,1025.81
2023-01-28T05:17:56.065Z,1025.80
2023-01-28T05:18:26.980Z,1025.81
2023-01-28T05:18:57.910Z,1025.81
2023-01-28T05:19:28.844Z,1025.81
2023-01-28T05:19:59.782Z,1025.81
2023-01-28T05:20:30.703Z,1025.81
2023-01-28T05:21:01.621Z,1025.82
2023-01-28T05:21:32.543Z,1025.81
2023-01-28T05:22:03.446Z,1025.82
2023-01-28T05:22:34.394Z,1025.83
2023-01-28T05:23:05.290Z,1025.83
2023-01-28T05:23:36.200Z,1025.84
2023-01-28T05:24:07.183Z,1025.85
2023-01-28T05:24:38.107Z,1025.85
2023-01-28T05:25:09.017Z,1025.86
2023-01-28T05:25:39.926Z,1025.87
2023-01-28T05:26:10.875Z,1025.87
2023-01-28T05:26:41.824Z,1025.89
2023-01-28T05:27:12.752Z,1025.89
2023-01-28T05:27:43.672Z,1025.90
2023-01-28T05:28:14.584Z,1025.90
2023-01-28T05:28:45.502Z,1025.92
2023-01-28T05:29:16.427Z,1025.90
2023-01-28T05:29:47.366Z,1025.89
2023-01-28T05:30:18.307Z,1025.89
2023-01-28T05:30:49.257Z,1025.88
2023-01-28T05:31:20.178Z,1025.87
2023-01-28T05:31:51.111Z,1025.87
2023-01-28T05:32:22.075Z,1025.89
2023-01-28T05:32:53.056Z,1025.89
2023-01-28T05:33:23.969Z,1025.89
2023-01-28T05:33:54.885Z,1025.89
2023-01-28T05:34:25.815Z,1025.88
2023-01-28T05:34:56.771Z,1025.89
2023-01-28T05:35:27.738Z,1025.90
2023-01-28T05:35:58.667Z,1025.91
2023-01-28T05:36:29.597Z,1025.90
2023-01-28T05:37:00.532Z,1025.89
2023-01-28T05:37:31.458Z,1025.90
2023-01-28T05:38:02.366Z,1025.90
2023-01-28T05:38:33.301Z,1025.90
2023-01-28T05:39:04.232Z,1025.92
2023-01-28T05:39:35.134Z,1025.93
2023-01-28T05:40:06.152Z,1025.92
2023-01-28T05:40:37.047Z,1025.94
2023-01-28T05:41:07.958Z,1025.96
2023-01-28T05:41:38.916Z,1025.96
2023-01-28T05:42:09.860Z,1025.96
2023-01-28T05:42:40.750Z,1025.97
2023-01-28T05:43:11.692Z,1025.97
2023-01-28T05:43:42.627Z,1025.98
2023-01-28T05:44:13.540Z,1025.96
2023-01-28T05:44:44.526Z,1025.97
2023-01-28T05:45:45.265Z,1025.97
2023-01-28T05:46:17.230Z,1025.97
2023-01-28T05:46:48.213Z,1025.98
2023-01-28T05:47:19.127Z,1025.98
2023-01-28T05:47:50.072Z,1025.98
2023-01-28T05:48:20.975Z,1025.97
2023-01-28T05:48:51.915Z,1025.98
2023-01-28T05:49:22.843Z,1025.99
2023-01-28T05:49:53.780Z,1025.99
2023-01-28T05:50:24.684Z,1026.01
2023-01-28T05:50:55.618Z,1026.00
2023-01-28T05:51:26.536Z,1026.01
2023-01-28T05:51:57.466Z,1026.02
2023-01-28T05:52:28.365Z,1026.00
2023-01-28T05:52:59.251Z,1026.01
2023-01-28T05:53:30.177Z,1026.02
2023-01-28T05:54:01.069Z,1026.03
2023-01-28T05:54:31.981Z,1026.01
2023-01-28T05:55:02.909Z,1026.02
2023-01-28T05:55:33.852Z,1026.02
2023-01-28T05:56:04.808Z,1026.01
2023-01-28T05:56:35.736Z,1026.01
2023-01-28T05:57:06.665Z,1026.00
2023-01-28T05:57:37.579Z,1025.99
2023-01-28T05:58:08.490Z,1025.98
2023-01-28T05:58:39.406Z,1025.98
2023-01-28T05:59:10.342Z,1025.97
2023-01-28T05:59:41.256Z,1025.98
2023-01-28T06:00:12.160Z,1025.96
2023-01-28T06:00:43.117Z,1025.96
2023-01-28T06:01:14.022Z,1025.94
2023-01-28T06:01:44.945Z,1025.96
2023-01-28T06:02:15.925Z,1025.96
2023-01-28T06:02:46.956Z,1025.97
2023-01-28T06:03:17.377Z,1025.98
2023-01-28T06:03:48.276Z,1025.99
2023-01-28T06:04:19.208Z,1026.00
2023-01-28T06:04:50.135Z,1025.99
2023-01-28T06:05:21.138Z,1026.00
2023-01-28T06:05:52.044Z,1025.98
2023-01-28T06:06:22.973Z,1026.00
2023-01-28T06:06:53.919Z,1025.99
2023-01-28T06:07:55.790Z,1025.99
2023-01-28T06:08:26.737Z,1026.01
2023-01-28T06:08:57.639Z,1026.01
2023-01-28T06:09:28.585Z,1026.02
2023-01-28T06:09:59.510Z,1026.02
2023-01-28T06:10:30.424Z,1026.02
2023-01-28T06:11:01.353Z,1026.04
2023-01-28T06:11:32.297Z,1026.01
2023-01-28T06:12:03.221Z,1026.03
2023-01-28T06:12:34.166Z,1026.04
2023-01-28T06:13:05.091Z,1026.04
2023-01-28T06:13:36.008Z,1026.05
2023-01-28T06:14:06.963Z,1026.05
2023-01-28T06:14:37.901Z,1026.09
2023-01-28T06:15:08.832Z,1026.06
2023-01-28T06:15:39.778Z,1026.08
2023-01-28T06:16:10.709Z,1026.09
2023-01-28T06:16:41.595Z,1026.11
2023-01-28T06:17:12.490Z,1026.11
2023-01-28T06:17:43.412Z,1026.13
2023-01-28T06:18:13.912Z,1026.14